Terminal Aerodrome Forecast
Issued by NWS

Home | Current Version | Previous Version | Graphics & Text | Print | Product List | Glossary On
Versions: 1 2 3 4 5 6 7 8 9 10 11 12
000
FTUS43 KABR 261120
TAFPIR
TAF
KPIR 261120Z 2612/2712 24007KT P6SM SKC
     FM261700 30012KT P6SM FEW250
     FM270100 33007KT P6SM SKC=

USA.gov is the U.S. government's official web portal to all federal, state and local government web resources and services.